Aeroporto :
LOGIN :

Iscrizione | Disclaimer

   EN    FR    IT 

 










Sommario :    VFR   VFR Marginale   IFR   IFR Intensivo   IFR Molto Intensivo
Visibilità : 
Base nubi : 
>= 8 km
>= 3000ft
5 / 8 km
1000 / 3000 ft
1500m / 5 km
500 / 1000 ft
800 / 1500m
200 / 500 ft
< 800m
< 200 ft
Simboli :   Temporali  Nebbia  Neve Forte  Precipitazioni Forti  Vento > 20 kt
SIGMETs :   Varie  Temporali  Ghiacco  Turbolenza  Onda orograficha  Ceneri Vulcaniche






- Altitudine del aeroporto : 2731 ft
- Codice IATA : LPY


LFHP - Le Puy Loudes

ULTIMO METAR :
  • 271600Z AUTO 30009KT 240V330 9999 RA SCT014/// BKN036/// BKN045/// ///CB 05/03 Q1008

METARs OBSOLETI :
  • 271530Z AUTO 29009KT 240V330 9999 -RA BKN017/// OVC022/// ///CB 06/04 Q1008
  • 271500Z AUTO 29010KT 250V320 9999 -RA BKN016/// OVC026/// ///CB 06/04 Q1008
  • 271430Z AUTO 29009KT 240V320 9999 -RA BKN016/// OVC023/// ///TCU 06/04 Q1008
  • 271400Z AUTO 29011KT 250V320 9999 -RA OVC015/// 06/04 Q1008
  • 271330Z AUTO 29011KT 250V320 9999 -RA BKN017 BKN022 OVC030 06/04 Q1008
  • 271300Z AUTO 29010KT 240V330 9999 -DZ BKN017 OVC025 06/04 Q1008

Previsioni scadute.



MetMap, La meteo Aeronautica in un colpo d'occhio ! - Copyright ORBIFLY Dicembre 2007 - Disclaimer

ORBIFLY MET'MAP TEAM :

Programmazione e sviluppo : Alexandra Zaïnal
Concezione : Baudouin d'Aumeries
Aiuto per la programmazione : Marc-Olivier Méhu
Supporto tecnico e logistico : Manuel Goepfert
Aiuto per la traduzione : Arnaldo La Scala

Contatto : metmap@orbifly.com




FONTI E CREDITI :

   NOAA